createdAt,value
2018-12-29T00:00:34.122Z,33.60
2018-12-29T00:03:01.425Z,34.40
2018-12-29T00:05:29.008Z,33.77
2018-12-29T00:07:56.549Z,35.40
2018-12-29T00:10:23.801Z,35.10
2018-12-29T00:12:51.024Z,36.93
2018-12-29T00:15:18.284Z,38.93
2018-12-29T00:17:45.861Z,35.03
2018-12-29T00:20:13.117Z,37.60
2018-12-29T00:22:40.668Z,35.63
2018-12-29T00:25:08.023Z,34.27
2018-12-29T00:27:35.272Z,32.93
2018-12-29T00:30:02.590Z,33.07
2018-12-29T00:32:29.821Z,33.60
2018-12-29T00:34:57.343Z,34.63
2018-12-29T00:37:24.573Z,35.07
2018-12-29T00:39:52.153Z,36.33
2018-12-29T00:42:19.290Z,34.77
2018-12-29T00:44:46.548Z,35.07
2018-12-29T00:47:14.117Z,33.40
2018-12-29T00:49:41.374Z,33.67
2018-12-29T00:52:09.233Z,32.43
2018-12-29T00:54:36.493Z,36.47
2018-12-29T00:57:04.049Z,31.53
2018-12-29T00:59:31.701Z,30.70
2018-12-29T01:01:59.265Z,31.03
2018-12-29T01:04:26.498Z,33.53
2018-12-29T01:06:53.749Z,33.77
2018-12-29T01:09:21.212Z,34.70
2018-12-29T01:11:48.459Z,33.73
2018-12-29T01:14:15.689Z,35.30
2018-12-29T01:16:42.940Z,36.23
2018-12-29T01:19:10.165Z,35.47
2018-12-29T01:21:37.420Z,34.00
2018-12-29T01:24:04.648Z,32.57
2018-12-29T01:26:31.917Z,34.53
2018-12-29T01:28:59.541Z,36.63
2018-12-29T01:31:27.146Z,34.63
2018-12-29T01:33:54.377Z,38.00
2018-12-29T01:36:21.624Z,34.33
2018-12-29T01:38:48.862Z,36.97
2018-12-29T01:41:16.420Z,33.07
2018-12-29T01:43:43.652Z,34.87
2018-12-29T01:46:10.905Z,34.43
2018-12-29T01:48:38.137Z,34.17
2018-12-29T01:51:05.496Z,35.67
2018-12-29T01:53:32.720Z,32.73
2018-12-29T01:55:59.973Z,33.13
2018-12-29T01:58:27.221Z,33.13
2018-12-29T02:00:54.841Z,33.30
2018-12-29T02:03:22.135Z,30.60
2018-12-29T02:05:49.441Z,31.10
2018-12-29T02:08:16.563Z,31.60
2018-12-29T02:10:44.214Z,29.60
2018-12-29T02:13:11.381Z,29.03
2018-12-29T02:15:38.968Z,31.17
2018-12-29T02:18:25.685Z,29.63
2018-12-29T02:20:52.941Z,29.00
2018-12-29T02:23:20.177Z,28.30
2018-12-29T02:25:47.442Z,27.57
2018-12-29T02:28:14.698Z,30.53
2018-12-29T02:30:41.985Z,28.97
2018-12-29T02:33:09.213Z,33.13
2018-12-29T02:35:36.451Z,31.00
2018-12-29T02:38:03.610Z,31.27
2018-12-29T02:40:30.841Z,31.67
2018-12-29T02:42:58.093Z,31.03
2018-12-29T02:45:32.860Z,30.27
2018-12-29T02:47:54.486Z,30.27
2018-12-29T02:50:21.713Z,32.13
2018-12-29T02:52:49.269Z,30.87
2018-12-29T02:55:16.405Z,30.50
2018-12-29T02:57:43.953Z,30.17
2018-12-29T03:00:11.182Z,30.90
2018-12-29T03:02:38.634Z,33.27
2018-12-29T03:05:05.961Z,33.03
2018-12-29T03:07:33.215Z,33.33
2018-12-29T03:10:00.468Z,31.40
2018-12-29T03:12:27.793Z,30.53
2018-12-29T03:14:55.021Z,30.63
2018-12-29T03:17:22.274Z,32.40
2018-12-29T03:19:49.717Z,33.60
2018-12-29T03:22:16.969Z,32.57
2018-12-29T03:24:44.533Z,34.03
2018-12-29T03:27:11.966Z,36.03
2018-12-29T03:29:39.237Z,34.10
2018-12-29T03:32:06.637Z,34.73
2018-12-29T03:34:33.914Z,35.30
2018-12-29T03:37:01.517Z,34.47
2018-12-29T03:39:28.648Z,34.27
2018-12-29T03:41:55.901Z,35.53
2018-12-29T03:44:23.125Z,35.37
2018-12-29T03:46:50.396Z,36.97
2018-12-29T03:49:17.724Z,34.60
2018-12-29T03:51:45.054Z,34.73
2018-12-29T03:54:12.500Z,34.30
2018-12-29T03:56:39.721Z,35.23
2018-12-29T03:59:06.973Z,35.77
2018-12-29T04:01:34.198Z,33.57
2018-12-29T04:04:01.460Z,35.47
2018-12-29T04:06:29.064Z,35.40
2018-12-29T04:09:29.875Z,34.93
2018-12-29T04:11:57.110Z,40.13
2018-12-29T04:14:24.714Z,38.50
2018-12-29T04:16:51.945Z,35.53
2018-12-29T04:19:19.514Z,36.10
2018-12-29T04:21:47.064Z,41.07
2018-12-29T04:24:14.309Z,38.77
2018-12-29T04:26:41.541Z,36.07
2018-12-29T04:29:09.245Z,35.30
2018-12-29T04:31:36.482Z,38.53
2018-12-29T04:34:03.733Z,36.57
2018-12-29T04:36:31.294Z,38.17
2018-12-29T04:38:58.550Z,36.93
2018-12-29T04:41:25.781Z,37.73
2018-12-29T04:43:53.390Z,38.33
2018-12-29T04:46:20.621Z,35.87
2018-12-29T04:48:48.283Z,38.77
2018-12-29T04:51:15.549Z,33.87
2018-12-29T04:53:43.493Z,35.43
2018-12-29T04:56:10.716Z,36.47
2018-12-29T04:58:37.978Z,37.03
2018-12-29T05:01:05.210Z,37.53
2018-12-29T05:03:32.700Z,36.17
2018-12-29T05:05:59.933Z,33.20
2018-12-29T05:08:27.189Z,35.83
2018-12-29T05:10:54.447Z,36.77
2018-12-29T05:13:22.032Z,34.23
2018-12-29T05:15:49.275Z,35.53
2018-12-29T05:18:16.824Z,36.33
2018-12-29T05:20:44.113Z,34.30
2018-12-29T05:23:11.340Z,34.50
2018-12-29T05:25:38.597Z,36.17
2018-12-29T05:28:06.141Z,34.00
2018-12-29T05:30:33.412Z,33.33
2018-12-29T05:33:00.957Z,34.80
2018-12-29T05:35:28.210Z,33.67
2018-12-29T05:37:55.853Z,34.33
2018-12-29T05:40:23.101Z,33.70
2018-12-29T05:42:50.330Z,33.23
2018-12-29T05:45:17.576Z,34.07
2018-12-29T05:47:45.078Z,35.17
2018-12-29T05:50:12.338Z,34.17
2018-12-29T05:52:40.306Z,30.97
2018-12-29T05:55:07.562Z,32.77
2018-12-29T05:57:34.785Z,32.80
2018-12-29T06:00:02.050Z,30.73
2018-12-29T06:02:29.385Z,33.90
2018-12-29T06:04:57.305Z,33.77
2018-12-29T06:07:24.547Z,32.40
2018-12-29T06:09:52.596Z,34.80
2018-12-29T06:12:19.825Z,30.93
2018-12-29T06:14:47.096Z,33.67
2018-12-29T06:17:14.325Z,32.27
2018-12-29T06:19:41.586Z,30.97
2018-12-29T06:22:08.745Z,30.07
2018-12-29T06:24:35.978Z,31.80
2018-12-29T06:27:03.238Z,31.17
2018-12-29T06:29:30.545Z,32.53
2018-12-29T06:31:58.101Z,33.83
2018-12-29T06:34:25.337Z,32.20
2018-12-29T06:36:53.377Z,31.37
2018-12-29T06:39:20.655Z,30.20
2018-12-29T06:41:47.885Z,34.27
2018-12-29T06:44:15.142Z,37.83
2018-12-29T06:46:42.722Z,50.90
2018-12-29T06:49:10.029Z,41.90
2018-12-29T06:51:39.150Z,40.30
2018-12-29T06:54:07.329Z,35.97
2018-12-29T06:56:34.561Z,32.23
2018-12-29T06:59:01.808Z,32.63
2018-12-29T07:01:29.042Z,32.47
2018-12-29T07:03:56.658Z,31.07
2018-12-29T07:06:23.981Z,30.33
2018-12-29T07:08:51.972Z,30.30
2018-12-29T07:11:19.640Z,30.60
2018-12-29T07:13:47.180Z,29.33
2018-12-29T07:16:14.421Z,28.83
2018-12-29T07:18:41.673Z,30.00
2018-12-29T07:21:08.953Z,29.77
2018-12-29T07:23:36.921Z,29.33
2018-12-29T07:26:04.145Z,30.50
2018-12-29T07:28:31.430Z,29.53
2018-12-29T07:30:58.968Z,32.53
2018-12-29T07:33:26.312Z,28.53
2018-12-29T07:35:53.873Z,30.07
2018-12-29T07:38:21.437Z,32.57
2018-12-29T07:40:48.670Z,29.90
2018-12-29T07:43:16.036Z,29.93
2018-12-29T07:45:43.273Z,30.03
2018-12-29T07:48:10.853Z,28.37
2018-12-29T07:50:38.317Z,28.87
2018-12-29T07:53:05.468Z,30.87
2018-12-29T07:55:32.709Z,29.80
2018-12-29T07:58:00.388Z,31.03
2018-12-29T08:00:27.939Z,29.40
2018-12-29T08:02:55.189Z,32.00
2018-12-29T08:05:22.372Z,27.93
2018-12-29T08:07:49.632Z,29.50
2018-12-29T08:10:17.146Z,29.80
2018-12-29T08:12:44.403Z,28.93
2018-12-29T08:15:11.876Z,28.70
2018-12-29T08:17:39.114Z,28.23
2018-12-29T08:20:06.434Z,28.67
2018-12-29T08:22:33.566Z,28.47
2018-12-29T08:25:01.598Z,28.47
2018-12-29T08:27:28.825Z,29.17
2018-12-29T08:29:56.387Z,29.23
2018-12-29T08:32:23.633Z,29.10
2018-12-29T08:34:50.886Z,28.63
2018-12-29T08:37:18.112Z,29.80
2018-12-29T08:39:45.365Z,30.47
2018-12-29T08:42:12.947Z,26.43
2018-12-29T08:44:40.197Z,27.17
2018-12-29T08:47:08.073Z,26.67
2018-12-29T08:49:35.329Z,27.60
2018-12-29T08:52:02.653Z,25.17
2018-12-29T08:54:30.265Z,26.03
2018-12-29T08:56:57.493Z,27.27
2018-12-29T08:59:24.942Z,27.93
2018-12-29T09:01:52.196Z,28.13
2018-12-29T09:04:19.541Z,25.10
2018-12-29T09:06:46.773Z,27.40
2018-12-29T09:09:14.565Z,28.43
2018-12-29T09:11:42.041Z,26.77
2018-12-29T09:14:09.993Z,27.47
2018-12-29T09:16:37.233Z,28.53
2018-12-29T09:19:04.485Z,28.77
2018-12-29T09:21:32.053Z,29.17
2018-12-29T09:23:59.613Z,28.27
2018-12-29T09:26:26.844Z,30.53
2018-12-29T09:28:54.207Z,31.10
2018-12-29T09:31:21.437Z,28.10
2018-12-29T09:33:48.669Z,27.50
2018-12-29T09:36:16.596Z,29.40
2018-12-29T09:38:43.914Z,29.70
2018-12-29T09:41:12.117Z,29.47
2018-12-29T09:43:39.346Z,31.30
2018-12-29T09:46:06.706Z,31.13
2018-12-29T09:48:33.931Z,32.37
2018-12-29T09:51:01.183Z,48.17
2018-12-29T09:53:28.396Z,38.37
2018-12-29T09:55:55.648Z,30.90
2018-12-29T09:58:23.168Z,34.43
2018-12-29T10:00:50.325Z,32.70
2018-12-29T10:03:17.652Z,29.70
2018-12-29T10:05:45.249Z,29.40
2018-12-29T10:08:12.468Z,30.10
2018-12-29T10:10:39.728Z,30.10
2018-12-29T10:13:06.953Z,31.40
2018-12-29T10:15:34.213Z,28.77
2018-12-29T10:18:01.610Z,31.67
2018-12-29T10:20:29.176Z,30.53
2018-12-29T10:22:56.726Z,32.43
2018-12-29T10:25:24.009Z,30.40
2018-12-29T10:27:51.232Z,28.13
2018-12-29T10:30:18.494Z,29.97
2018-12-29T10:32:45.717Z,27.93
2018-12-29T10:35:12.994Z,28.67
2018-12-29T10:37:40.424Z,28.87
2018-12-29T10:40:08.002Z,27.53
2018-12-29T10:42:35.220Z,27.27
2018-12-29T10:45:02.808Z,28.30
2018-12-29T10:47:34.471Z,27.87
2018-12-29T10:49:59.773Z,28.90
2018-12-29T10:52:27.005Z,28.57
2018-12-29T10:54:54.237Z,27.43
2018-12-29T10:57:21.486Z,39.33
2018-12-29T10:59:49.085Z,27.60
2018-12-29T11:02:16.345Z,28.70
2018-12-29T11:04:44.921Z,29.50
2018-12-29T11:07:12.481Z,28.13
2018-12-29T11:09:39.705Z,30.10
2018-12-29T11:12:07.057Z,29.33
2018-12-29T11:14:34.289Z,29.67
2018-12-29T11:17:01.797Z,28.73
2018-12-29T11:19:29.114Z,30.40
2018-12-29T11:21:56.373Z,30.63
2018-12-29T11:24:23.601Z,28.27
2018-12-29T11:26:51.210Z,30.20
2018-12-29T11:29:18.437Z,29.17
2018-12-29T11:31:45.676Z,28.73
2018-12-29T11:34:13.021Z,28.53
2018-12-29T11:36:40.729Z,26.03
2018-12-29T11:39:08.279Z,28.50
2018-12-29T11:41:35.541Z,27.80
2018-12-29T11:44:02.773Z,29.87
2018-12-29T11:46:30.353Z,28.30
2018-12-29T11:48:57.640Z,28.73
2018-12-29T11:51:25.368Z,27.97
2018-12-29T11:53:53.338Z,31.17
2018-12-29T11:56:20.693Z,28.70
2018-12-29T11:58:48.345Z,29.13
2018-12-29T12:01:15.813Z,30.67
2018-12-29T12:03:43.381Z,32.40
2018-12-29T12:06:10.704Z,30.77
2018-12-29T12:08:38.794Z,30.30
2018-12-29T12:11:06.046Z,29.87
2018-12-29T12:13:33.506Z,32.87
2018-12-29T12:16:01.031Z,28.30
2018-12-29T12:18:28.717Z,29.77
2018-12-29T12:20:56.049Z,29.63
2018-12-29T12:23:23.761Z,27.97
2018-12-29T12:25:51.089Z,29.33
2018-12-29T12:28:18.487Z,27.73
2018-12-29T12:30:45.808Z,30.43
2018-12-29T12:33:13.593Z,32.47
2018-12-29T12:35:40.921Z,30.20
2018-12-29T12:38:09.297Z,30.97
2018-12-29T12:40:36.625Z,30.90
2018-12-29T12:43:04.417Z,30.10
2018-12-29T12:45:31.748Z,28.50
2018-12-29T12:48:05.048Z,30.00
2018-12-29T12:50:28.360Z,27.83
2018-12-29T12:52:56.505Z,28.57
2018-12-29T12:55:24.153Z,28.73
2018-12-29T12:57:51.524Z,29.07
2018-12-29T13:00:19.472Z,30.70
2018-12-29T13:02:46.747Z,32.13
2018-12-29T13:05:14.151Z,32.30
2018-12-29T13:07:41.433Z,29.27
2018-12-29T13:10:09.202Z,30.10
2018-12-29T13:12:36.582Z,29.63
2018-12-29T13:15:04.232Z,29.23
2018-12-29T13:17:31.868Z,31.67
2018-12-29T13:19:59.542Z,28.70
2018-12-29T13:22:26.888Z,27.87
2018-12-29T13:24:54.521Z,32.40
2018-12-29T13:27:21.789Z,30.63
2018-12-29T13:29:49.694Z,34.23
2018-12-29T13:32:17.080Z,27.30
2018-12-29T13:34:44.510Z,24.20
2018-12-29T13:37:11.873Z,26.90
2018-12-29T13:39:39.518Z,28.00
2018-12-29T13:42:06.872Z,28.97
2018-12-29T13:44:34.196Z,28.23
2018-12-29T13:47:02.176Z,31.63
2018-12-29T13:49:29.597Z,29.47
2018-12-29T13:51:57.497Z,31.77
2018-12-29T13:54:24.956Z,32.90
2018-12-29T13:56:52.284Z,34.27
2018-12-29T13:59:19.653Z,34.93
2018-12-29T14:01:47.081Z,32.70
2018-12-29T14:04:14.828Z,32.93
2018-12-29T14:06:42.054Z,33.30
2018-12-29T14:09:09.424Z,35.70
2018-12-29T14:11:36.750Z,34.77
2018-12-29T14:14:04.201Z,33.67
2018-12-29T14:16:31.871Z,34.87
2018-12-29T14:18:59.277Z,36.20
2018-12-29T14:21:26.630Z,34.77
2018-12-29T14:23:54.056Z,35.83
2018-12-29T14:26:22.340Z,34.40
2018-12-29T14:28:50.093Z,33.63
2018-12-29T14:31:17.921Z,34.87
2018-12-29T14:33:45.200Z,33.63
2018-12-29T14:36:12.547Z,34.90
2018-12-29T14:38:39.905Z,33.30
2018-12-29T14:41:07.460Z,33.50
2018-12-29T14:43:35.465Z,33.33
2018-12-29T14:46:03.077Z,36.60
2018-12-29T14:48:35.805Z,35.00
2018-12-29T14:51:00.082Z,34.00
2018-12-29T14:53:27.721Z,37.00
2018-12-29T14:55:55.050Z,34.60
2018-12-29T14:58:25.552Z,36.97
2018-12-29T15:00:52.931Z,34.87
2018-12-29T15:03:20.292Z,33.87
2018-12-29T15:05:47.953Z,36.90
2018-12-29T15:08:15.313Z,38.90
2018-12-29T15:10:42.644Z,38.57
2018-12-29T15:13:10.508Z,38.80
2018-12-29T15:15:37.837Z,32.83
2018-12-29T15:18:05.601Z,33.27
2018-12-29T15:20:33.639Z,32.60
2018-12-29T15:23:01.269Z,33.53
2018-12-29T15:25:28.640Z,35.03
2018-12-29T15:27:56.497Z,32.57
2018-12-29T15:30:23.853Z,33.03
2018-12-29T15:32:51.225Z,30.63
2018-12-29T15:35:18.506Z,31.10
2018-12-29T15:37:45.909Z,30.83
2018-12-29T15:40:13.272Z,28.63
2018-12-29T15:42:44.838Z,29.60
2018-12-29T15:45:09.867Z,30.50
2018-12-29T15:47:37.194Z,28.93
2018-12-29T15:50:04.596Z,28.87
2018-12-29T15:52:31.937Z,28.27
2018-12-29T15:54:59.305Z,27.90
2018-12-29T15:57:27.001Z,28.67
2018-12-29T15:59:54.808Z,27.87
2018-12-29T16:02:22.141Z,28.17
2018-12-29T16:04:49.911Z,28.90
2018-12-29T16:07:17.232Z,29.37
2018-12-29T16:09:44.602Z,29.43
2018-12-29T16:12:12.144Z,27.77
2018-12-29T16:14:39.502Z,29.17
2018-12-29T16:17:06.842Z,31.27
2018-12-29T16:19:34.547Z,28.57
2018-12-29T16:22:01.906Z,30.73
2018-12-29T16:24:29.262Z,33.50
2018-12-29T16:26:56.889Z,30.40
2018-12-29T16:29:25.364Z,28.37
2018-12-29T16:31:53.026Z,29.27
2018-12-29T16:34:20.905Z,29.03
2018-12-29T16:36:48.540Z,30.13
2018-12-29T16:39:16.538Z,30.67
2018-12-29T16:41:43.877Z,32.23
2018-12-29T16:44:11.537Z,33.90
2018-12-29T16:46:39.203Z,32.13
2018-12-29T16:49:07.188Z,29.97
2018-12-29T16:51:34.529Z,31.23
2018-12-29T16:54:02.185Z,27.77
2018-12-29T16:56:29.860Z,29.60
2018-12-29T16:58:57.819Z,25.90
2018-12-29T17:01:25.205Z,28.67
2018-12-29T17:03:52.529Z,28.17
2018-12-29T17:06:19.897Z,27.27
2018-12-29T17:08:47.237Z,27.73
2018-12-29T17:11:14.597Z,27.30
2018-12-29T17:13:42.227Z,27.03
2018-12-29T17:16:09.942Z,26.87
2018-12-29T17:18:37.277Z,25.00
2018-12-29T17:21:05.269Z,24.40
2018-12-29T17:23:32.599Z,25.87
2018-12-29T17:25:59.969Z,27.60
2018-12-29T17:28:27.601Z,27.37
2018-12-29T17:30:55.285Z,26.23
2018-12-29T17:33:23.009Z,25.93
2018-12-29T17:35:50.372Z,26.57
2018-12-29T17:38:18.011Z,26.23
2018-12-29T17:40:45.702Z,26.27
2018-12-29T17:43:13.365Z,27.20
2018-12-29T17:45:41.053Z,26.77
2018-12-29T17:48:08.790Z,26.23
2018-12-29T17:50:36.457Z,26.10
2018-12-29T17:53:03.873Z,26.47
2018-12-29T17:55:31.237Z,27.77
2018-12-29T17:57:59.845Z,27.80
2018-12-29T18:00:27.688Z,26.27
2018-12-29T18:02:55.037Z,26.27
2018-12-29T18:05:22.726Z,25.83
2018-12-29T18:07:50.149Z,26.70
2018-12-29T18:10:17.857Z,27.50
2018-12-29T18:12:45.509Z,28.47
2018-12-29T18:15:13.188Z,26.93
2018-12-29T18:17:40.868Z,27.53
2018-12-29T18:20:08.196Z,27.40
2018-12-29T18:22:35.565Z,25.47
2018-12-29T18:25:02.988Z,27.13
2018-12-29T18:27:30.351Z,25.83
2018-12-29T18:29:57.665Z,23.30
2018-12-29T18:32:25.049Z,25.63
2018-12-29T18:34:52.377Z,24.87
2018-12-29T18:37:20.180Z,23.70
2018-12-29T18:39:47.869Z,23.03
2018-12-29T18:42:15.227Z,22.83
2018-12-29T18:44:42.456Z,22.60
2018-12-29T18:47:09.816Z,22.80
2018-12-29T18:49:38.575Z,23.33
2018-12-29T18:52:06.309Z,23.30
2018-12-29T18:54:33.650Z,23.27
2018-12-29T18:57:01.013Z,23.77
2018-12-29T18:59:29.013Z,23.20
2018-12-29T19:01:57.684Z,22.60
2018-12-29T19:04:25.678Z,23.53
2018-12-29T19:06:53.048Z,24.60
2018-12-29T19:09:20.368Z,23.37
2018-12-29T19:11:47.746Z,24.93
2018-12-29T19:14:15.309Z,22.10
2018-12-29T19:16:42.689Z,22.60
2018-12-29T19:19:10.014Z,24.30
2018-12-29T19:21:37.381Z,22.40
2018-12-29T19:24:05.116Z,22.93
2018-12-29T19:26:32.881Z,21.40
2018-12-29T19:29:00.521Z,22.00
2018-12-29T19:31:28.213Z,23.80
2018-12-29T19:33:55.832Z,21.13
2018-12-29T19:36:23.533Z,20.07
2018-12-29T19:38:51.190Z,18.97
2018-12-29T19:41:18.564Z,20.10
2018-12-29T19:43:46.307Z,20.37
2018-12-29T19:46:14.488Z,19.60
2018-12-29T19:48:42.711Z,17.83
2018-12-29T19:51:10.352Z,18.50
2018-12-29T19:53:38.277Z,18.47
2018-12-29T19:56:05.611Z,19.40
2018-12-29T19:58:32.982Z,18.60
2018-12-29T20:01:00.314Z,20.20
2018-12-29T20:03:27.678Z,20.43
2018-12-29T20:05:54.905Z,19.37
2018-12-29T20:08:22.549Z,19.37
2018-12-29T20:10:50.485Z,18.80
2018-12-29T20:13:17.886Z,21.17
2018-12-29T20:15:45.217Z,20.23
2018-12-29T20:18:12.488Z,21.93
2018-12-29T20:20:39.828Z,21.50
2018-12-29T20:23:07.227Z,22.33
2018-12-29T20:25:34.526Z,19.57
2018-12-29T20:28:02.189Z,19.73
2018-12-29T20:30:29.526Z,22.70
2018-12-29T20:32:59.088Z,20.43
2018-12-29T20:35:26.013Z,20.03
2018-12-29T20:37:54.041Z,20.37
2018-12-29T20:40:21.705Z,19.10
2018-12-29T20:42:49.158Z,19.77
2018-12-29T20:45:17.433Z,18.77
2018-12-29T20:47:45.133Z,18.93
2018-12-29T20:50:12.467Z,18.50
2018-12-29T20:52:41.686Z,18.70
2018-12-29T20:55:08.982Z,17.80
2018-12-29T20:57:36.733Z,17.77
2018-12-29T21:00:04.380Z,17.90
2018-12-29T21:02:31.746Z,17.10
2018-12-29T21:04:59.344Z,18.13
2018-12-29T21:07:27.228Z,16.20
2018-12-29T21:09:54.565Z,16.10
2018-12-29T21:12:22.222Z,17.07
2018-12-29T21:14:49.581Z,16.67
2018-12-29T21:17:17.243Z,17.60
2018-12-29T21:19:44.600Z,16.47
2018-12-29T21:22:12.541Z,16.73
2018-12-29T21:24:39.905Z,15.73
2018-12-29T21:27:07.886Z,17.87
2018-12-29T21:29:35.545Z,16.87
2018-12-29T21:32:03.209Z,17.43
2018-12-29T21:34:30.897Z,16.63
2018-12-29T21:36:58.523Z,16.70
2018-12-29T21:39:26.198Z,18.20
2018-12-29T21:41:53.611Z,17.43
2018-12-29T21:44:20.960Z,17.73
2018-12-29T21:46:48.292Z,18.03
2018-12-29T21:49:16.221Z,17.50
2018-12-29T21:51:44.309Z,17.97
2018-12-29T21:54:16.397Z,17.23
2018-12-29T21:56:43.197Z,18.53
2018-12-29T21:59:15.843Z,19.50
2018-12-29T22:01:45.534Z,17.80
2018-12-29T22:04:13.074Z,18.90
2018-12-29T22:06:40.409Z,18.27
2018-12-29T22:09:08.117Z,18.27
2018-12-29T22:11:35.440Z,20.10
2018-12-29T22:14:03.228Z,19.73
2018-12-29T22:16:30.561Z,19.93
2018-12-29T22:18:57.928Z,20.63
2018-12-29T22:21:25.260Z,20.20
2018-12-29T22:23:52.613Z,19.63
2018-12-29T22:26:19.940Z,21.40
2018-12-29T22:28:47.311Z,21.07
2018-12-29T22:31:14.654Z,22.83
2018-12-29T22:33:42.005Z,21.63
2018-12-29T22:36:09.337Z,20.60
2018-12-29T22:38:37.029Z,22.50
2018-12-29T22:41:04.356Z,22.23
2018-12-29T22:43:31.808Z,21.60
2018-12-29T22:45:59.393Z,21.80
2018-12-29T22:48:26.768Z,21.30
2018-12-29T22:50:54.218Z,23.00
2018-12-29T22:53:21.550Z,21.53
2018-12-29T22:55:48.937Z,23.10
2018-12-29T22:58:16.583Z,23.67
2018-12-29T23:00:46.490Z,22.03
2018-12-29T23:03:16.066Z,22.80
2018-12-29T23:05:43.221Z,21.73
2018-12-29T23:08:11.218Z,22.67
2018-12-29T23:10:38.882Z,23.53
2018-12-29T23:13:06.276Z,24.30
2018-12-29T23:15:33.661Z,24.17
2018-12-29T23:18:00.989Z,23.17
2018-12-29T23:20:29.052Z,25.17
2018-12-29T23:22:56.382Z,24.73
2018-12-29T23:25:24.252Z,23.40
2018-12-29T23:27:51.568Z,25.67
2018-12-29T23:30:19.279Z,25.50
2018-12-29T23:32:47.223Z,26.53
2018-12-29T23:35:14.581Z,27.70
2018-12-29T23:37:42.337Z,25.07
2018-12-29T23:40:09.693Z,27.53
2018-12-29T23:42:37.023Z,28.10
2018-12-29T23:45:04.783Z,29.17
2018-12-29T23:47:32.512Z,25.97
2018-12-29T23:49:59.789Z,26.13
2018-12-29T23:52:27.381Z,26.60
2018-12-29T23:54:55.041Z,28.30
2018-12-29T23:57:22.378Z,28.30
2018-12-29T23:59:50.125Z,31.30
